메인 페이지
METAR-TAF:

METAR-TAF

공항 :

테레지나, 피아우이, 브라질

위도: 05-03S, 경도: 042-49W, 고도: 69m

현재 날씨관측

예보는 53분 전, 16:00시(UTC)에 발표되었습니다.
동남동8kt
온도 31°C
습도 55%
기압 1011 hPa
시정 10km 이상
고도 3000ft 상공 구름 많음

METAR: SBTE 211600Z 11008KT 9999 BKN030 31/21 Q1011

시각: 13:53 (16:53 UTC)

예보

예보는 7 시간 2분 전, 09:51시(UTC)에 발표되었습니다.
예보 대상 시간: 21일 12시부터 21일 24시까지 (UTC)
남남동5kt
시정 10km 이상
고도 3000ft 상공 구름 조금
전환 중
21일 12시부터 21일 14시까지 (UTC)
남동10kt
전환 중
21일 20시부터 21일 22시까지 (UTC)
5kt

TAF: SBTE 210951Z 2112/2124 16005KT 9999 FEW030 TX34/2117Z TN28/2124Z BECMG 2112/2114 13010KT BECMG 2120/2122 17005KT RMK PHC

4,000개 이상의 공항 관측 자료 및 예보 (METAR 및 TAF 보고).

지도상에서 검색 가능한 기상관측소가 노란 점과 빨간 점으로 표시되어 있습니다.

기상관측소 명을 보려면 표시 위로 마우스를 이동하세요.

날씨 관측과 예보를 보려면 클릭하세요.

지도 변경 : 확대하려면 엑스 표시가 있는 녹색 버튼, 축소하려면 빼기 표시가 있는 녹색 버튼, 다음 페이지의 지도를 보려면 녹색 화살표를 클릭하세요.


METAR-TAF: